sensor_id;sensor_type;location;lat;lon;timestamp;temperature;humidity
11922;DHT22;6021;51.182;3.160;2023-12-14T00:01:20;8.50;99.90
11922;DHT22;6021;51.182;3.160;2023-12-14T00:03:48;8.50;99.90
11922;DHT22;6021;51.182;3.160;2023-12-14T00:06:17;8.50;99.90
11922;DHT22;6021;51.182;3.160;2023-12-14T00:08:45;8.50;99.90
11922;DHT22;6021;51.182;3.160;2023-12-14T00:11:13;8.10;99.90
11922;DHT22;6021;51.182;3.160;2023-12-14T00:13:42;8.50;99.90
11922;DHT22;6021;51.182;3.160;2023-12-14T00:16:10;8.20;99.90
11922;DHT22;6021;51.182;3.160;2023-12-14T00:18:38;8.10;99.90
11922;DHT22;6021;51.182;3.160;2023-12-14T00:21:07;7.90;99.90
11922;DHT22;6021;51.182;3.160;2023-12-14T00:23:35;7.90;99.90
11922;DHT22;6021;51.182;3.160;2023-12-14T00:26:04;8.10;99.90
11922;DHT22;6021;51.182;3.160;2023-12-14T00:28:32;7.90;99.90
11922;DHT22;6021;51.182;3.160;2023-12-14T00:31:00;7.80;99.90
11922;DHT22;6021;51.182;3.160;2023-12-14T00:33:29;7.90;99.90
11922;DHT22;6021;51.182;3.160;2023-12-14T00:35:57;7.80;99.90
11922;DHT22;6021;51.182;3.160;2023-12-14T00:38:26;7.90;99.90
11922;DHT22;6021;51.182;3.160;2023-12-14T00:40:54;7.70;99.90
11922;DHT22;6021;51.182;3.160;2023-12-14T00:43:22;7.60;99.90
11922;DHT22;6021;51.182;3.160;2023-12-14T00:45:51;7.70;99.90
11922;DHT22;6021;51.182;3.160;2023-12-14T00:48:19;7.60;99.90
11922;DHT22;6021;51.182;3.160;2023-12-14T00:50:48;7.60;99.90
11922;DHT22;6021;51.182;3.160;2023-12-14T00:53:16;7.60;99.90
11922;DHT22;6021;51.182;3.160;2023-12-14T00:55:45;7.40;99.90
11922;DHT22;6021;51.182;3.160;2023-12-14T00:58:13;7.40;99.90
11922;DHT22;6021;51.182;3.160;2023-12-14T01:00:41;7.60;99.90
11922;DHT22;6021;51.182;3.160;2023-12-14T01:03:10;7.30;99.90
11922;DHT22;6021;51.182;3.160;2023-12-14T01:05:38;7.40;99.90
11922;DHT22;6021;51.182;3.160;2023-12-14T01:08:06;7.60;99.90
11922;DHT22;6021;51.182;3.160;2023-12-14T01:10:36;7.40;99.90
11922;DHT22;6021;51.182;3.160;2023-12-14T01:13:04;7.70;99.90
11922;DHT22;6021;51.182;3.160;2023-12-14T01:15:32;7.40;99.90
11922;DHT22;6021;51.182;3.160;2023-12-14T01:18:01;7.40;99.90
11922;DHT22;6021;51.182;3.160;2023-12-14T01:20:29;7.40;99.90
11922;DHT22;6021;51.182;3.160;2023-12-14T01:22:59;7.40;99.90
11922;DHT22;6021;51.182;3.160;2023-12-14T01:25:27;7.40;99.90
11922;DHT22;6021;51.182;3.160;2023-12-14T01:27:57;7.30;99.90
11922;DHT22;6021;51.182;3.160;2023-12-14T01:30:25;7.60;99.90
11922;DHT22;6021;51.182;3.160;2023-12-14T01:32:54;7.30;99.90
11922;DHT22;6021;51.182;3.160;2023-12-14T01:35:22;7.60;99.90
11922;DHT22;6021;51.182;3.160;2023-12-14T01:37:51;7.50;99.90
11922;DHT22;6021;51.182;3.160;2023-12-14T01:40:19;7.30;99.90
11922;DHT22;6021;51.182;3.160;2023-12-14T01:42:47;7.30;99.90
11922;DHT22;6021;51.182;3.160;2023-12-14T01:45:16;7.10;99.90
11922;DHT22;6021;51.182;3.160;2023-12-14T01:47:45;7.60;99.90
11922;DHT22;6021;51.182;3.160;2023-12-14T01:50:13;7.50;99.90
11922;DHT22;6021;51.182;3.160;2023-12-14T01:52:42;7.30;99.90
11922;DHT22;6021;51.182;3.160;2023-12-14T01:55:10;7.10;99.90
11922;DHT22;6021;51.182;3.160;2023-12-14T01:57:39;7.60;99.90
11922;DHT22;6021;51.182;3.160;2023-12-14T02:00:07;7.10;99.90
11922;DHT22;6021;51.182;3.160;2023-12-14T02:02:37;7.30;99.90
11922;DHT22;6021;51.182;3.160;2023-12-14T02:05:07;7.20;99.90
11922;DHT22;6021;51.182;3.160;2023-12-14T02:07:35;7.30;99.90
11922;DHT22;6021;51.182;3.160;2023-12-14T02:10:04;7.60;99.90
11922;DHT22;6021;51.182;3.160;2023-12-14T02:12:33;7.30;99.90
11922;DHT22;6021;51.182;3.160;2023-12-14T02:15:01;7.20;99.90
11922;DHT22;6021;51.182;3.160;2023-12-14T02:17:29;7.20;99.90
11922;DHT22;6021;51.182;3.160;2023-12-14T02:19:58;7.10;99.90
11922;DHT22;6021;51.182;3.160;2023-12-14T02:22:27;7.10;99.90
11922;DHT22;6021;51.182;3.160;2023-12-14T02:24:55;7.10;99.90
11922;DHT22;6021;51.182;3.160;2023-12-14T02:27:24;7.10;99.90
11922;DHT22;6021;51.182;3.160;2023-12-14T02:29:52;7.10;99.90
11922;DHT22;6021;51.182;3.160;2023-12-14T02:32:20;7.40;99.90
11922;DHT22;6021;51.182;3.160;2023-12-14T02:34:48;7.10;99.90
11922;DHT22;6021;51.182;3.160;2023-12-14T02:37:17;7.50;99.90
11922;DHT22;6021;51.182;3.160;2023-12-14T02:39:45;7.30;99.90
11922;DHT22;6021;51.182;3.160;2023-12-14T02:42:14;7.10;99.90
11922;DHT22;6021;51.182;3.160;2023-12-14T02:44:42;7.20;99.90
11922;DHT22;6021;51.182;3.160;2023-12-14T02:47:11;7.40;99.90
11922;DHT22;6021;51.182;3.160;2023-12-14T02:49:39;7.10;99.90
11922;DHT22;6021;51.182;3.160;2023-12-14T02:52:07;7.10;99.90
11922;DHT22;6021;51.182;3.160;2023-12-14T02:54:38;7.10;99.90
11922;DHT22;6021;51.182;3.160;2023-12-14T02:57:07;7.20;99.90
11922;DHT22;6021;51.182;3.160;2023-12-14T02:59:35;7.10;99.90
11922;DHT22;6021;51.182;3.160;2023-12-14T03:02:04;7.00;99.90
11922;DHT22;6021;51.182;3.160;2023-12-14T03:04:32;6.90;99.90
11922;DHT22;6021;51.182;3.160;2023-12-14T03:07:00;6.90;99.90
11922;DHT22;6021;51.182;3.160;2023-12-14T03:09:29;7.10;99.90
11922;DHT22;6021;51.182;3.160;2023-12-14T03:11:58;7.10;99.90
11922;DHT22;6021;51.182;3.160;2023-12-14T03:14:31;7.30;99.90
11922;DHT22;6021;51.182;3.160;2023-12-14T03:17:00;6.90;99.90
11922;DHT22;6021;51.182;3.160;2023-12-14T03:19:29;7.30;99.90
11922;DHT22;6021;51.182;3.160;2023-12-14T03:21:57;7.10;99.90
11922;DHT22;6021;51.182;3.160;2023-12-14T03:24:26;7.10;99.90
11922;DHT22;6021;51.182;3.160;2023-12-14T03:26:54;7.30;99.90
11922;DHT22;6021;51.182;3.160;2023-12-14T03:29:22;7.10;99.90
11922;DHT22;6021;51.182;3.160;2023-12-14T03:31:51;7.10;99.90
11922;DHT22;6021;51.182;3.160;2023-12-14T03:34:19;7.10;99.90
11922;DHT22;6021;51.182;3.160;2023-12-14T03:36:47;7.40;99.90
11922;DHT22;6021;51.182;3.160;2023-12-14T03:39:16;7.10;99.90
11922;DHT22;6021;51.182;3.160;2023-12-14T03:41:44;7.30;99.90
11922;DHT22;6021;51.182;3.160;2023-12-14T03:44:13;6.90;99.90
11922;DHT22;6021;51.182;3.160;2023-12-14T03:46:41;7.30;99.90
11922;DHT22;6021;51.182;3.160;2023-12-14T03:49:10;7.10;99.90
11922;DHT22;6021;51.182;3.160;2023-12-14T03:51:38;7.00;99.90
11922;DHT22;6021;51.182;3.160;2023-12-14T03:54:07;7.20;99.90
11922;DHT22;6021;51.182;3.160;2023-12-14T03:56:35;7.20;99.90
11922;DHT22;6021;51.182;3.160;2023-12-14T03:59:04;7.10;99.90
11922;DHT22;6021;51.182;3.160;2023-12-14T04:01:32;6.90;99.90
11922;DHT22;6021;51.182;3.160;2023-12-14T04:04:01;7.30;99.90
11922;DHT22;6021;51.182;3.160;2023-12-14T04:06:29;6.80;99.90
11922;DHT22;6021;51.182;3.160;2023-12-14T04:08:57;6.90;99.90
11922;DHT22;6021;51.182;3.160;2023-12-14T04:11:25;7.30;99.90
11922;DHT22;6021;51.182;3.160;2023-12-14T04:13:55;7.10;99.90
11922;DHT22;6021;51.182;3.160;2023-12-14T04:16:23;7.10;99.90
11922;DHT22;6021;51.182;3.160;2023-12-14T04:18:52;7.10;99.90
11922;DHT22;6021;51.182;3.160;2023-12-14T04:21:20;7.30;99.90
11922;DHT22;6021;51.182;3.160;2023-12-14T04:23:48;7.10;99.90
11922;DHT22;6021;51.182;3.160;2023-12-14T04:26:17;6.90;99.90
11922;DHT22;6021;51.182;3.160;2023-12-14T04:28:45;7.00;99.90
11922;DHT22;6021;51.182;3.160;2023-12-14T04:31:14;7.00;99.90
11922;DHT22;6021;51.182;3.160;2023-12-14T04:33:42;7.00;99.90
11922;DHT22;6021;51.182;3.160;2023-12-14T04:36:10;7.00;99.90
11922;DHT22;6021;51.182;3.160;2023-12-14T04:38:39;7.00;99.90
11922;DHT22;6021;51.182;3.160;2023-12-14T04:41:08;6.90;99.90
11922;DHT22;6021;51.182;3.160;2023-12-14T04:43:36;6.80;99.90
11922;DHT22;6021;51.182;3.160;2023-12-14T04:46:05;6.90;99.90
11922;DHT22;6021;51.182;3.160;2023-12-14T04:48:33;6.80;99.90
11922;DHT22;6021;51.182;3.160;2023-12-14T04:51:02;6.80;99.90
11922;DHT22;6021;51.182;3.160;2023-12-14T04:53:30;6.90;99.90
11922;DHT22;6021;51.182;3.160;2023-12-14T04:55:58;6.80;99.90
11922;DHT22;6021;51.182;3.160;2023-12-14T04:58:26;6.70;99.90
11922;DHT22;6021;51.182;3.160;2023-12-14T05:00:55;6.50;99.90
11922;DHT22;6021;51.182;3.160;2023-12-14T05:03:23;6.60;99.90
11922;DHT22;6021;51.182;3.160;2023-12-14T05:05:51;6.70;99.90
11922;DHT22;6021;51.182;3.160;2023-12-14T05:08:20;6.70;99.90
11922;DHT22;6021;51.182;3.160;2023-12-14T05:10:48;6.60;99.90
11922;DHT22;6021;51.182;3.160;2023-12-14T05:13:16;7.00;99.90
11922;DHT22;6021;51.182;3.160;2023-12-14T05:15:45;6.80;99.90
11922;DHT22;6021;51.182;3.160;2023-12-14T05:18:13;6.80;99.90
11922;DHT22;6021;51.182;3.160;2023-12-14T05:20:42;6.80;99.90
11922;DHT22;6021;51.182;3.160;2023-12-14T05:23:10;6.80;99.90
11922;DHT22;6021;51.182;3.160;2023-12-14T05:25:39;6.80;99.90
11922;DHT22;6021;51.182;3.160;2023-12-14T05:28:07;6.80;99.90
11922;DHT22;6021;51.182;3.160;2023-12-14T05:30:35;6.80;99.90
11922;DHT22;6021;51.182;3.160;2023-12-14T05:33:04;7.00;99.90
11922;DHT22;6021;51.182;3.160;2023-12-14T05:35:32;7.00;99.90
11922;DHT22;6021;51.182;3.160;2023-12-14T05:38:00;7.00;99.90
11922;DHT22;6021;51.182;3.160;2023-12-14T05:40:29;7.00;99.90
11922;DHT22;6021;51.182;3.160;2023-12-14T05:42:57;7.00;99.90
11922;DHT22;6021;51.182;3.160;2023-12-14T05:45:25;7.00;99.90
11922;DHT22;6021;51.182;3.160;2023-12-14T05:47:54;6.90;99.90
11922;DHT22;6021;51.182;3.160;2023-12-14T05:50:22;6.80;99.90
11922;DHT22;6021;51.182;3.160;2023-12-14T05:52:50;6.80;99.90
11922;DHT22;6021;51.182;3.160;2023-12-14T05:55:19;6.90;99.90
11922;DHT22;6021;51.182;3.160;2023-12-14T05:57:49;6.80;99.90
11922;DHT22;6021;51.182;3.160;2023-12-14T06:00:18;6.80;99.90
11922;DHT22;6021;51.182;3.160;2023-12-14T06:02:46;6.80;99.90
11922;DHT22;6021;51.182;3.160;2023-12-14T06:05:15;6.80;99.90
11922;DHT22;6021;51.182;3.160;2023-12-14T06:07:43;6.50;99.90
11922;DHT22;6021;51.182;3.160;2023-12-14T06:10:11;6.60;99.90
11922;DHT22;6021;51.182;3.160;2023-12-14T06:12:40;7.00;99.90
11922;DHT22;6021;51.182;3.160;2023-12-14T06:15:09;6.70;99.90
11922;DHT22;6021;51.182;3.160;2023-12-14T06:17:38;6.80;99.90
11922;DHT22;6021;51.182;3.160;2023-12-14T06:20:08;6.80;99.90
11922;DHT22;6021;51.182;3.160;2023-12-14T06:22:37;7.10;99.90
11922;DHT22;6021;51.182;3.160;2023-12-14T06:25:06;6.80;99.90
11922;DHT22;6021;51.182;3.160;2023-12-14T06:27:34;6.80;99.90
11922;DHT22;6021;51.182;3.160;2023-12-14T06:30:03;6.60;99.90
11922;DHT22;6021;51.182;3.160;2023-12-14T06:32:31;6.70;99.90
11922;DHT22;6021;51.182;3.160;2023-12-14T06:34:59;6.50;99.90
11922;DHT22;6021;51.182;3.160;2023-12-14T06:37:28;6.60;99.90
11922;DHT22;6021;51.182;3.160;2023-12-14T06:39:56;6.70;99.90
11922;DHT22;6021;51.182;3.160;2023-12-14T06:42:29;6.50;99.90
11922;DHT22;6021;51.182;3.160;2023-12-14T06:44:58;6.30;99.90
11922;DHT22;6021;51.182;3.160;2023-12-14T06:47:27;6.40;99.90
11922;DHT22;6021;51.182;3.160;2023-12-14T06:49:55;6.30;99.90
11922;DHT22;6021;51.182;3.160;2023-12-14T06:52:25;6.40;99.90
11922;DHT22;6021;51.182;3.160;2023-12-14T06:54:53;6.30;99.90
11922;DHT22;6021;51.182;3.160;2023-12-14T06:57:22;6.70;99.90
11922;DHT22;6021;51.182;3.160;2023-12-14T06:59:50;6.40;99.90
11922;DHT22;6021;51.182;3.160;2023-12-14T07:02:18;6.30;99.90
11922;DHT22;6021;51.182;3.160;2023-12-14T07:04:47;6.50;99.90
11922;DHT22;6021;51.182;3.160;2023-12-14T07:07:16;6.60;99.90
11922;DHT22;6021;51.182;3.160;2023-12-14T07:09:44;6.70;99.90
11922;DHT22;6021;51.182;3.160;2023-12-14T07:12:13;6.50;99.90
11922;DHT22;6021;51.182;3.160;2023-12-14T07:14:42;6.50;99.90
11922;DHT22;6021;51.182;3.160;2023-12-14T07:17:10;6.60;99.90
11922;DHT22;6021;51.182;3.160;2023-12-14T07:19:38;6.80;99.90
11922;DHT22;6021;51.182;3.160;2023-12-14T07:22:07;6.60;99.90
11922;DHT22;6021;51.182;3.160;2023-12-14T07:24:35;6.80;99.90
11922;DHT22;6021;51.182;3.160;2023-12-14T07:27:04;6.60;99.90
11922;DHT22;6021;51.182;3.160;2023-12-14T07:29:32;6.90;99.90
11922;DHT22;6021;51.182;3.160;2023-12-14T07:32:00;6.60;99.90
11922;DHT22;6021;51.182;3.160;2023-12-14T07:34:29;6.80;99.90
11922;DHT22;6021;51.182;3.160;2023-12-14T07:36:57;6.60;99.90
11922;DHT22;6021;51.182;3.160;2023-12-14T07:39:26;6.90;99.90
11922;DHT22;6021;51.182;3.160;2023-12-14T07:41:54;6.70;99.90
11922;DHT22;6021;51.182;3.160;2023-12-14T07:44:22;6.60;99.90
11922;DHT22;6021;51.182;3.160;2023-12-14T07:46:52;6.60;99.90
11922;DHT22;6021;51.182;3.160;2023-12-14T07:49:20;6.70;99.90
11922;DHT22;6021;51.182;3.160;2023-12-14T07:51:50;6.80;99.90
11922;DHT22;6021;51.182;3.160;2023-12-14T07:54:19;6.90;99.90
11922;DHT22;6021;51.182;3.160;2023-12-14T07:56:47;6.80;99.90
11922;DHT22;6021;51.182;3.160;2023-12-14T07:59:15;6.90;99.90
11922;DHT22;6021;51.182;3.160;2023-12-14T08:01:44;6.90;99.90
11922;DHT22;6021;51.182;3.160;2023-12-14T08:04:12;7.10;99.90
11922;DHT22;6021;51.182;3.160;2023-12-14T08:06:41;6.90;99.90
11922;DHT22;6021;51.182;3.160;2023-12-14T08:09:09;6.80;99.90
11922;DHT22;6021;51.182;3.160;2023-12-14T08:11:37;7.00;99.90
11922;DHT22;6021;51.182;3.160;2023-12-14T08:14:06;7.00;99.90
11922;DHT22;6021;51.182;3.160;2023-12-14T08:16:34;6.80;99.90
11922;DHT22;6021;51.182;3.160;2023-12-14T08:19:03;6.90;99.90
11922;DHT22;6021;51.182;3.160;2023-12-14T08:21:31;7.10;99.90
11922;DHT22;6021;51.182;3.160;2023-12-14T08:23:59;6.90;99.90
11922;DHT22;6021;51.182;3.160;2023-12-14T08:26:28;7.10;99.90
11922;DHT22;6021;51.182;3.160;2023-12-14T08:28:56;7.40;99.90
11922;DHT22;6021;51.182;3.160;2023-12-14T08:31:24;7.10;99.90
11922;DHT22;6021;51.182;3.160;2023-12-14T08:33:53;7.30;99.90
11922;DHT22;6021;51.182;3.160;2023-12-14T08:36:22;7.60;99.90
11922;DHT22;6021;51.182;3.160;2023-12-14T08:38:50;7.40;99.90
11922;DHT22;6021;51.182;3.160;2023-12-14T08:41:18;7.70;99.90
11922;DHT22;6021;51.182;3.160;2023-12-14T08:43:47;7.40;99.90
11922;DHT22;6021;51.182;3.160;2023-12-14T08:46:15;7.70;99.90
11922;DHT22;6021;51.182;3.160;2023-12-14T08:48:43;7.40;99.90
11922;DHT22;6021;51.182;3.160;2023-12-14T08:51:11;7.50;99.90
11922;DHT22;6021;51.182;3.160;2023-12-14T08:53:40;7.40;99.90
11922;DHT22;6021;51.182;3.160;2023-12-14T08:56:09;7.60;99.90
11922;DHT22;6021;51.182;3.160;2023-12-14T08:58:37;7.70;99.90
11922;DHT22;6021;51.182;3.160;2023-12-14T09:01:05;7.70;99.90
11922;DHT22;6021;51.182;3.160;2023-12-14T09:03:34;7.50;99.90
11922;DHT22;6021;51.182;3.160;2023-12-14T09:06:02;7.80;99.90
11922;DHT22;6021;51.182;3.160;2023-12-14T09:08:32;7.90;99.90
11922;DHT22;6021;51.182;3.160;2023-12-14T09:11:00;8.00;99.90
11922;DHT22;6021;51.182;3.160;2023-12-14T09:13:29;8.00;99.90
11922;DHT22;6021;51.182;3.160;2023-12-14T09:15:58;8.00;99.90
11922;DHT22;6021;51.182;3.160;2023-12-14T09:18:26;8.00;99.90
11922;DHT22;6021;51.182;3.160;2023-12-14T09:20:54;7.90;99.90
11922;DHT22;6021;51.182;3.160;2023-12-14T09:23:23;7.90;99.90
11922;DHT22;6021;51.182;3.160;2023-12-14T09:25:51;8.20;99.90
11922;DHT22;6021;51.182;3.160;2023-12-14T09:28:20;7.90;99.90
11922;DHT22;6021;51.182;3.160;2023-12-14T09:30:48;7.90;99.90
11922;DHT22;6021;51.182;3.160;2023-12-14T09:33:16;7.90;99.90
11922;DHT22;6021;51.182;3.160;2023-12-14T09:35:45;7.90;99.90
11922;DHT22;6021;51.182;3.160;2023-12-14T09:38:13;7.80;99.90
11922;DHT22;6021;51.182;3.160;2023-12-14T09:40:44;7.90;99.90
11922;DHT22;6021;51.182;3.160;2023-12-14T09:43:12;7.80;99.90
11922;DHT22;6021;51.182;3.160;2023-12-14T09:45:41;8.20;99.90
11922;DHT22;6021;51.182;3.160;2023-12-14T09:48:12;7.90;99.90
11922;DHT22;6021;51.182;3.160;2023-12-14T09:50:41;8.00;99.90
11922;DHT22;6021;51.182;3.160;2023-12-14T09:53:09;8.20;99.90
11922;DHT22;6021;51.182;3.160;2023-12-14T09:55:38;8.00;99.90
11922;DHT22;6021;51.182;3.160;2023-12-14T09:58:06;8.20;99.90
11922;DHT22;6021;51.182;3.160;2023-12-14T10:00:38;8.10;99.90
11922;DHT22;6021;51.182;3.160;2023-12-14T10:03:23;8.30;99.90
11922;DHT22;6021;51.182;3.160;2023-12-14T10:05:54;8.20;99.90
11922;DHT22;6021;51.182;3.160;2023-12-14T10:08:24;8.40;99.90
11922;DHT22;6021;51.182;3.160;2023-12-14T10:10:54;8.40;99.90
11922;DHT22;6021;51.182;3.160;2023-12-14T10:13:38;8.50;99.90
11922;DHT22;6021;51.182;3.160;2023-12-14T10:16:06;8.30;99.90
11922;DHT22;6021;51.182;3.160;2023-12-14T10:18:34;8.60;99.90
11922;DHT22;6021;51.182;3.160;2023-12-14T10:21:04;8.50;99.90
11922;DHT22;6021;51.182;3.160;2023-12-14T10:23:34;8.40;99.90
11922;DHT22;6021;51.182;3.160;2023-12-14T10:26:04;8.50;99.90
11922;DHT22;6021;51.182;3.160;2023-12-14T10:28:33;8.40;99.90
11922;DHT22;6021;51.182;3.160;2023-12-14T10:31:01;8.50;99.90
11922;DHT22;6021;51.182;3.160;2023-12-14T10:33:31;8.30;99.90
11922;DHT22;6021;51.182;3.160;2023-12-14T10:36:00;8.50;99.90
11922;DHT22;6021;51.182;3.160;2023-12-14T10:38:30;8.40;99.90
11922;DHT22;6021;51.182;3.160;2023-12-14T10:40:59;8.30;99.90
11922;DHT22;6021;51.182;3.160;2023-12-14T10:43:29;8.50;99.90
11922;DHT22;6021;51.182;3.160;2023-12-14T10:45:59;8.50;99.90
11922;DHT22;6021;51.182;3.160;2023-12-14T10:48:30;8.20;99.90
11922;DHT22;6021;51.182;3.160;2023-12-14T10:51:00;8.10;99.90
11922;DHT22;6021;51.182;3.160;2023-12-14T10:53:29;8.30;99.90
11922;DHT22;6021;51.182;3.160;2023-12-14T10:55:59;8.10;99.90
11922;DHT22;6021;51.182;3.160;2023-12-14T10:58:44;8.20;99.90
11922;DHT22;6021;51.182;3.160;2023-12-14T11:01:01;8.30;99.90
11922;DHT22;6021;51.182;3.160;2023-12-14T11:03:36;8.10;99.90
11922;DHT22;6021;51.182;3.160;2023-12-14T11:06:15;8.10;99.90
11922;DHT22;6021;51.182;3.160;2023-12-14T11:08:35;8.20;99.90
11922;DHT22;6021;51.182;3.160;2023-12-14T11:11:05;8.20;99.90
11922;DHT22;6021;51.182;3.160;2023-12-14T11:13:35;8.20;99.90
11922;DHT22;6021;51.182;3.160;2023-12-14T11:16:05;8.20;99.90
11922;DHT22;6021;51.182;3.160;2023-12-14T11:18:33;8.10;99.90
11922;DHT22;6021;51.182;3.160;2023-12-14T11:21:02;7.90;99.90
11922;DHT22;6021;51.182;3.160;2023-12-14T11:23:38;8.00;99.90
11922;DHT22;6021;51.182;3.160;2023-12-14T11:26:10;8.00;99.90
11922;DHT22;6021;51.182;3.160;2023-12-14T11:28:40;8.00;99.90
11922;DHT22;6021;51.182;3.160;2023-12-14T11:31:11;7.90;99.90
11922;DHT22;6021;51.182;3.160;2023-12-14T11:33:40;8.10;99.90
11922;DHT22;6021;51.182;3.160;2023-12-14T11:36:09;8.10;99.90
11922;DHT22;6021;51.182;3.160;2023-12-14T11:38:39;8.30;99.90
11922;DHT22;6021;51.182;3.160;2023-12-14T11:41:07;8.30;99.90
11922;DHT22;6021;51.182;3.160;2023-12-14T11:43:43;8.30;99.90
11922;DHT22;6021;51.182;3.160;2023-12-14T11:46:11;8.30;99.90
11922;DHT22;6021;51.182;3.160;2023-12-14T11:48:43;8.50;99.90
11922;DHT22;6021;51.182;3.160;2023-12-14T11:51:11;8.40;99.90
11922;DHT22;6021;51.182;3.160;2023-12-14T11:53:39;8.60;99.90
11922;DHT22;6021;51.182;3.160;2023-12-14T11:56:09;8.20;99.90
11922;DHT22;6021;51.182;3.160;2023-12-14T11:58:45;8.30;99.90
11922;DHT22;6021;51.182;3.160;2023-12-14T12:01:19;8.10;99.90
11922;DHT22;6021;51.182;3.160;2023-12-14T12:03:49;8.30;99.90
11922;DHT22;6021;51.182;3.160;2023-12-14T12:06:24;8.30;99.90
11922;DHT22;6021;51.182;3.160;2023-12-14T12:08:52;8.00;99.90
11922;DHT22;6021;51.182;3.160;2023-12-14T12:11:22;8.20;99.90
11922;DHT22;6021;51.182;3.160;2023-12-14T12:13:52;7.80;99.90
11922;DHT22;6021;51.182;3.160;2023-12-14T12:16:20;7.90;99.90
11922;DHT22;6021;51.182;3.160;2023-12-14T12:18:49;8.20;99.90
11922;DHT22;6021;51.182;3.160;2023-12-14T12:21:18;7.90;99.90
11922;DHT22;6021;51.182;3.160;2023-12-14T12:23:46;8.30;99.90
11922;DHT22;6021;51.182;3.160;2023-12-14T12:26:15;8.00;90.30
11922;DHT22;6021;51.182;3.160;2023-12-14T12:28:43;8.20;78.80
11922;DHT22;6021;51.182;3.160;2023-12-14T12:31:11;8.00;64.40
11922;DHT22;6021;51.182;3.160;2023-12-14T12:33:40;8.10;26.50
11922;DHT22;6021;51.182;3.160;2023-12-14T12:36:08;8.00;1.00
11922;DHT22;6021;51.182;3.160;2023-12-14T12:38:37;8.20;1.00
11922;DHT22;6021;51.182;3.160;2023-12-14T12:41:07;7.70;1.00
11922;DHT22;6021;51.182;3.160;2023-12-14T12:43:35;7.80;3.40
11922;DHT22;6021;51.182;3.160;2023-12-14T12:46:03;7.90;13.50
11922;DHT22;6021;51.182;3.160;2023-12-14T12:48:32;7.90;1.00
11922;DHT22;6021;51.182;3.160;2023-12-14T12:51:00;7.50;11.00
11922;DHT22;6021;51.182;3.160;2023-12-14T12:53:28;7.70;21.80
11922;DHT22;6021;51.182;3.160;2023-12-14T12:55:57;7.70;30.20
11922;DHT22;6021;51.182;3.160;2023-12-14T12:58:26;8.00;43.10
11922;DHT22;6021;51.182;3.160;2023-12-14T13:00:55;7.70;53.00
11922;DHT22;6021;51.182;3.160;2023-12-14T13:03:24;8.10;53.10
11922;DHT22;6021;51.182;3.160;2023-12-14T13:05:53;7.80;20.90
11922;DHT22;6021;51.182;3.160;2023-12-14T13:08:41;8.00;22.90
11922;DHT22;6021;51.182;3.160;2023-12-14T13:11:10;7.80;22.20
11922;DHT22;6021;51.182;3.160;2023-12-14T13:13:39;7.70;20.70
11922;DHT22;6021;51.182;3.160;2023-12-14T13:16:08;7.40;11.80
11922;DHT22;6021;51.182;3.160;2023-12-14T13:18:36;7.90;13.60
11922;DHT22;6021;51.182;3.160;2023-12-14T13:21:05;7.90;13.30
11922;DHT22;6021;51.182;3.160;2023-12-14T13:23:33;7.70;1.00
11922;DHT22;6021;51.182;3.160;2023-12-14T13:26:01;7.70;1.00
11922;DHT22;6021;51.182;3.160;2023-12-14T13:28:30;7.50;1.50
11922;DHT22;6021;51.182;3.160;2023-12-14T13:30:58;7.60;7.60
11922;DHT22;6021;51.182;3.160;2023-12-14T13:33:27;7.50;16.80
11922;DHT22;6021;51.182;3.160;2023-12-14T13:35:55;7.90;4.10
11922;DHT22;6021;51.182;3.160;2023-12-14T13:38:24;7.50;2.20
11922;DHT22;6021;51.182;3.160;2023-12-14T13:40:52;7.40;14.20
11922;DHT22;6021;51.182;3.160;2023-12-14T13:43:20;7.90;16.10
11922;DHT22;6021;51.182;3.160;2023-12-14T13:45:49;7.70;9.00
11922;DHT22;6021;51.182;3.160;2023-12-14T13:48:19;7.70;18.00
11922;DHT22;6021;51.182;3.160;2023-12-14T13:50:47;7.70;25.80
11922;DHT22;6021;51.182;3.160;2023-12-14T13:53:15;7.90;35.60
11922;DHT22;6021;51.182;3.160;2023-12-14T13:55:44;7.90;42.60
11922;DHT22;6021;51.182;3.160;2023-12-14T13:58:13;7.90;43.50
11922;DHT22;6021;51.182;3.160;2023-12-14T14:00:43;7.90;48.10
11922;DHT22;6021;51.182;3.160;2023-12-14T14:03:11;8.30;26.70
11922;DHT22;6021;51.182;3.160;2023-12-14T14:05:40;8.10;18.30
11922;DHT22;6021;51.182;3.160;2023-12-14T14:08:10;8.20;12.10
11922;DHT22;6021;51.182;3.160;2023-12-14T14:10:38;8.20;1.60
11922;DHT22;6021;51.182;3.160;2023-12-14T14:13:07;7.80;1.00
11922;DHT22;6021;51.182;3.160;2023-12-14T14:15:35;7.70;1.00
11922;DHT22;6021;51.182;3.160;2023-12-14T14:18:03;8.00;1.00
11922;DHT22;6021;51.182;3.160;2023-12-14T14:20:32;7.40;1.00
11922;DHT22;6021;51.182;3.160;2023-12-14T14:23:00;7.50;1.00
11922;DHT22;6021;51.182;3.160;2023-12-14T14:25:28;7.70;1.00
11922;DHT22;6021;51.182;3.160;2023-12-14T14:27:57;7.50;1.00
11922;DHT22;6021;51.182;3.160;2023-12-14T14:30:26;7.60;1.00
11922;DHT22;6021;51.182;3.160;2023-12-14T14:32:54;7.40;1.00
11922;DHT22;6021;51.182;3.160;2023-12-14T14:35:23;7.40;1.00
11922;DHT22;6021;51.182;3.160;2023-12-14T14:37:51;7.50;8.00
11922;DHT22;6021;51.182;3.160;2023-12-14T14:40:19;7.70;19.20
11922;DHT22;6021;51.182;3.160;2023-12-14T14:42:49;7.60;26.40
11922;DHT22;6021;51.182;3.160;2023-12-14T14:45:18;7.40;35.60
11922;DHT22;6021;51.182;3.160;2023-12-14T14:47:46;7.70;51.40
11922;DHT22;6021;51.182;3.160;2023-12-14T14:50:14;7.90;51.50
11922;DHT22;6021;51.182;3.160;2023-12-14T14:52:43;7.70;55.40
11922;DHT22;6021;51.182;3.160;2023-12-14T14:55:11;7.90;51.20
11922;DHT22;6021;51.182;3.160;2023-12-14T14:57:39;7.70;40.90
11922;DHT22;6021;51.182;3.160;2023-12-14T15:00:08;7.90;44.60
11922;DHT22;6021;51.182;3.160;2023-12-14T15:02:37;7.70;36.30
11922;DHT22;6021;51.182;3.160;2023-12-14T15:05:05;7.60;33.10
11922;DHT22;6021;51.182;3.160;2023-12-14T15:07:34;7.70;46.50
11922;DHT22;6021;51.182;3.160;2023-12-14T15:10:02;7.80;50.20
11922;DHT22;6021;51.182;3.160;2023-12-14T15:12:31;7.90;56.40
11922;DHT22;6021;51.182;3.160;2023-12-14T15:14:59;7.70;61.60
11922;DHT22;6021;51.182;3.160;2023-12-14T15:17:27;7.40;63.70
11922;DHT22;6021;51.182;3.160;2023-12-14T15:19:55;7.60;70.90
11922;DHT22;6021;51.182;3.160;2023-12-14T15:22:24;7.60;82.30
11922;DHT22;6021;51.182;3.160;2023-12-14T15:24:52;7.60;74.00
11922;DHT22;6021;51.182;3.160;2023-12-14T15:27:20;7.70;65.70
11922;DHT22;6021;51.182;3.160;2023-12-14T15:29:49;7.90;70.30
11922;DHT22;6021;51.182;3.160;2023-12-14T15:32:17;7.60;63.50
11922;DHT22;6021;51.182;3.160;2023-12-14T15:34:46;7.80;71.20
11922;DHT22;6021;51.182;3.160;2023-12-14T15:37:14;7.40;74.30
11922;DHT22;6021;51.182;3.160;2023-12-14T15:39:42;7.70;91.30
11922;DHT22;6021;51.182;3.160;2023-12-14T15:42:12;7.70;90.80
11922;DHT22;6021;51.182;3.160;2023-12-14T15:44:40;7.70;93.60
11922;DHT22;6021;51.182;3.160;2023-12-14T15:47:09;7.60;95.70
11922;DHT22;6021;51.182;3.160;2023-12-14T15:49:37;8.00;94.90
11922;DHT22;6021;51.182;3.160;2023-12-14T15:52:05;7.70;85.80
11922;DHT22;6021;51.182;3.160;2023-12-14T15:54:34;7.60;89.20
11922;DHT22;6021;51.182;3.160;2023-12-14T15:57:02;7.70;89.30
11922;DHT22;6021;51.182;3.160;2023-12-14T15:59:31;7.60;92.90
11922;DHT22;6021;51.182;3.160;2023-12-14T16:01:59;7.40;91.80
11922;DHT22;6021;51.182;3.160;2023-12-14T16:04:27;7.10;97.30
11922;DHT22;6021;51.182;3.160;2023-12-14T16:06:56;7.60;99.90
11922;DHT22;6021;51.182;3.160;2023-12-14T16:09:25;7.60;99.90
11922;DHT22;6021;51.182;3.160;2023-12-14T16:11:55;7.50;98.20